Terminal Aerodrome Forecast
Issued by NWS Tuscon, AZ

Home | Current Version | Previous Version | Text Only | Print | Product List | Glossary On
Versions: 1 2 3 4 5 6 7 8 9 10 11 12 13 14 15 16 17 18 19 20 21 22 23 24
000
FTUS45 KTWC 300125 AAA
TAFTUS
TAF AMD
KTUS 300125Z 3001/3024 04011G20KT P6SM VCTS FEW090CB BKN150
      TEMPO 3001/3003 VRB20G35KT 5SM -TSRA FEW030CB BKN110
     FM300400 11006KT P6SM VCSH SCT110 BKN250
     FM300600 14007KT P6SM FEW140 SCT250
     FM302200 32009KT P6SM VCSH SCT100 SCT150=

USA.gov is the U.S. government's official web portal to all federal, state and local government web resources and services.